Time;durP1;ratioP1;P1;durP2;ratioP2;P2;SDS_P1;SDS_P2;PMS_P1;PMS_P2;Temp;Humidity;BMP_temperature;BMP_pressure;BME280_temperature;BME280_humidity;BME280_pressure;Samples;Min_cycle;Max_cycle;Signal;HPM_P1;HPM_P2
2021/06/03 00:01:52;;;;;;;4.70;3.10;;;19.60;99.90;;;;;;4916926;29;20472;-77
2021/06/03 00:04:17;;;;;;;3.97;2.97;;;19.50;99.90;;;;;;4916478;29;20233;-78
2021/06/03 00:06:44;;;;;;;3.40;3.00;;;19.50;99.90;;;;;;4916964;29;20414;-78
2021/06/03 00:09:10;;;;;;;3.87;3.27;;;19.40;99.90;;;;;;4915971;29;20182;-79
2021/06/03 00:11:36;;;;;;;5.40;2.93;;;19.40;99.90;;;;;;4931688;29;20425;-78
2021/06/03 00:14:04;;;;;;;3.13;2.83;;;19.30;99.90;;;;;;4931240;29;20484;-79
2021/06/03 00:16:33;;;;;;;3.63;3.33;;;19.30;99.90;;;;;;4915672;29;20423;-78
2021/06/03 00:19:04;;;;;;;3.13;2.87;;;19.40;99.90;;;;;;4931276;29;20484;-79
2021/06/03 00:21:30;;;;;;;3.43;2.90;;;19.30;99.90;;;;;;4915785;29;20827;-77
2021/06/03 00:23:56;;;;;;;3.93;2.63;;;19.30;99.90;;;;;;4916453;29;20508;-79
2021/06/03 00:26:22;;;;;;;3.43;3.13;;;19.10;99.90;;;;;;4919599;29;20414;-78
2021/06/03 00:28:47;;;;;;;4.07;3.23;;;19.10;99.90;;;;;;4920388;29;20174;-79
2021/06/03 00:31:13;;;;;;;7.10;3.30;;;19.10;99.90;;;;;;4920396;29;20648;-78
2021/06/03 00:33:39;;;;;;;7.93;3.27;;;19.20;99.90;;;;;;4920099;29;20220;-77
2021/06/03 00:36:04;;;;;;;3.70;3.40;;;19.10;99.90;;;;;;4920469;29;20193;-78
2021/06/03 00:38:30;;;;;;;5.43;4.93;;;19.10;99.90;;;;;;4934833;29;20227;-78
2021/06/03 00:40:56;;;;;;;5.23;4.73;;;19.00;99.90;;;;;;4918962;29;20317;-79
2021/06/03 00:43:21;;;;;;;6.60;4.90;;;19.00;99.90;;;;;;4919845;29;20225;-79
2021/06/03 00:45:47;;;;;;;5.20;3.63;;;18.90;99.90;;;;;;4920355;29;20178;-79
2021/06/03 00:48:13;;;;;;;5.20;3.40;;;18.90;99.90;;;;;;4920197;29;20182;-77
2021/06/03 00:50:46;;;;;;;4.10;3.70;;;18.90;99.90;;;;;;4920204;29;20182;-78
2021/06/03 00:53:13;;;;;;;4.00;3.30;;;18.90;99.90;;;;;;4918770;29;20515;-78
2021/06/03 00:55:42;;;;;;;7.00;3.50;;;18.80;99.90;;;;;;4921646;29;20418;-78
2021/06/03 00:58:08;;;;;;;4.23;3.50;;;18.70;99.90;;;;;;4920215;29;20425;-78
2021/06/03 01:00:34;;;;;;;6.07;2.90;;;18.70;99.90;;;;;;4920160;29;20841;-78
2021/06/03 01:03:00;;;;;;;7.00;5.00;;;18.70;99.90;;;;;;4919635;29;20202;-78
2021/06/03 01:05:30;;;;;;;3.47;3.17;;;18.80;99.90;;;;;;4919801;29;20477;-78
2021/06/03 01:07:58;;;;;;;4.20;3.80;;;18.70;99.90;;;;;;4919936;29;20930;-77
2021/06/03 01:10:58;;;;;;;4.30;3.40;;;18.70;99.90;;;;;;4919918;29;20418;-78
2021/06/03 01:13:33;;;;;;;3.80;3.40;;;18.70;99.90;;;;;;4929349;29;20935;-78
2021/06/03 01:16:03;;;;;;;3.67;3.37;;;18.70;99.90;;;;;;4919774;29;20409;-78
2021/06/03 01:18:32;;;;;;;4.23;3.30;;;18.70;99.90;;;;;;4919538;29;20505;-77
2021/06/03 01:20:58;;;;;;;3.80;2.93;;;18.60;99.90;;;;;;4919477;29;20415;-78
2021/06/03 01:23:47;;;;;;;4.37;3.43;;;18.60;99.90;;;;;;4919306;29;20924;-77
2021/06/03 01:26:16;;;;;;;3.90;3.57;;;18.60;99.90;;;;;;4919549;29;20430;-77
2021/06/03 01:28:42;;;;;;;4.40;3.60;;;18.50;99.90;;;;;;4919480;29;20414;-78
2021/06/03 01:31:09;;;;;;;3.87;3.43;;;18.30;99.90;;;;;;4919301;29;20423;-79
2021/06/03 01:33:40;;;;;;;4.20;3.40;;;18.10;99.90;;;;;;4919144;29;20434;-77
2021/06/03 01:36:07;;;;;;;3.60;3.30;;;18.00;99.90;;;;;;4917764;29;20942;-79
2021/06/03 01:38:36;;;;;;;4.43;3.60;;;17.90;99.90;;;;;;4918785;29;20469;-78
2021/06/03 01:41:04;;;;;;;4.53;3.80;;;17.90;99.90;;;;;;4919174;29;20418;-78
2021/06/03 01:43:32;;;;;;;4.27;3.20;;;17.90;99.90;;;;;;4933384;29;20441;-78
2021/06/03 01:45:58;;;;;;;5.93;4.33;;;17.90;99.90;;;;;;4919188;29;20400;-78
2021/06/03 01:48:24;;;;;;;3.90;3.40;;;17.90;99.90;;;;;;4917951;29;20955;-77
2021/06/03 01:50:53;;;;;;;4.20;3.77;;;17.90;99.90;;;;;;4919067;29;20497;-80
2021/06/03 01:53:21;;;;;;;5.97;4.13;;;17.90;99.90;;;;;;4918522;29;20789;-78
2021/06/03 01:55:47;;;;;;;4.73;3.40;;;17.90;99.90;;;;;;4919184;29;20433;-78
2021/06/03 01:58:13;;;;;;;4.40;3.20;;;18.00;99.90;;;;;;4919035;29;21343;-78
2021/06/03 02:00:39;;;;;;;4.13;3.73;;;18.00;99.90;;;;;;4918942;29;20412;-77
2021/06/03 02:03:05;;;;;;;4.60;4.03;;;17.90;99.90;;;;;;4918434;29;20975;-78
2021/06/03 02:05:31;;;;;;;3.80;3.47;;;17.90;99.90;;;;;;4933348;29;20476;-77
2021/06/03 02:07:56;;;;;;;5.23;4.20;;;17.90;99.90;;;;;;4933626;29;20221;-78
2021/06/03 02:10:23;;;;;;;6.93;4.10;;;18.00;99.90;;;;;;4918906;29;20178;-78
2021/06/03 02:13:14;;;;;;;6.03;4.20;;;17.90;99.90;;;;;;4918419;29;20248;-77
2021/06/03 02:16:03;;;;;;;4.07;3.67;;;17.90;99.90;;;;;;4918830;29;20436;-78
2021/06/03 02:18:39;;;;;;;4.63;3.53;;;18.00;99.90;;;;;;4918763;29;20461;-77
2021/06/03 02:21:06;;;;;;;5.50;4.00;;;17.90;99.90;;;;;;4918508;29;20454;-80
2021/06/03 02:23:32;;;;;;;4.90;3.87;;;18.00;99.90;;;;;;4918130;29;20800;-78
2021/06/03 02:26:00;;;;;;;5.23;3.77;;;17.90;99.90;;;;;;4918472;29;20776;-78
2021/06/03 02:28:28;;;;;;;5.17;3.50;;;17.90;99.90;;;;;;4917107;29;20769;-78
2021/06/03 02:30:56;;;;;;;5.00;3.57;;;17.90;99.90;;;;;;4918347;29;20422;-77
2021/06/03 02:33:22;;;;;;;3.83;3.40;;;17.90;99.90;;;;;;4917838;29;20442;-78
2021/06/03 02:35:48;;;;;;;3.90;3.53;;;17.90;99.90;;;;;;4918213;29;20510;-78
2021/06/03 02:38:16;;;;;;;4.53;3.50;;;17.90;99.90;;;;;;4918162;29;20175;-78
2021/06/03 02:40:42;;;;;;;4.30;3.87;;;17.90;99.90;;;;;;4918263;29;20423;-77
2021/06/03 02:43:08;;;;;;;6.93;3.60;;;17.90;99.90;;;;;;4917843;29;20501;-77
2021/06/03 02:45:34;;;;;;;4.33;3.93;;;17.90;99.90;;;;;;4918015;29;20427;-78
2021/06/03 02:48:01;;;;;;;4.20;3.50;;;17.80;99.90;;;;;;4917910;29;20440;-77
2021/06/03 02:50:28;;;;;;;4.63;3.40;;;17.80;99.90;;;;;;4917967;29;20422;-78
2021/06/03 02:52:55;;;;;;;4.10;3.70;;;17.80;99.90;;;;;;4917602;29;20432;-77
2021/06/03 02:55:25;;;;;;;4.00;3.43;;;17.80;99.90;;;;;;4917796;29;20420;-79
2021/06/03 02:57:51;;;;;;;3.57;3.27;;;17.70;99.90;;;;;;4917879;29;20417;-77
2021/06/03 03:00:23;;;;;;;3.60;3.20;;;17.80;99.90;;;;;;4917964;29;20517;-77
2021/06/03 03:02:49;;;;;;;4.30;3.50;;;17.80;99.90;;;;;;4917510;29;20843;-78
2021/06/03 03:05:15;;;;;;;5.00;3.53;;;17.70;99.90;;;;;;4917628;29;20469;-78
2021/06/03 03:07:41;;;;;;;4.37;3.80;;;17.60;99.90;;;;;;4916578;29;20179;-77
2021/06/03 03:10:16;;;;;;;3.70;3.40;;;17.60;99.90;;;;;;4917824;29;20423;-77
2021/06/03 03:12:42;;;;;;;4.93;3.77;;;17.60;99.90;;;;;;4917785;29;20545;-77
2021/06/03 03:15:12;;;;;;;4.77;3.43;;;17.50;99.90;;;;;;4917370;29;20445;-78
2021/06/03 03:17:38;;;;;;;4.77;3.97;;;17.50;99.90;;;;;;4917597;29;20578;-80
2021/06/03 03:20:05;;;;;;;3.90;3.47;;;17.50;99.90;;;;;;4917475;29;20485;-79
2021/06/03 03:22:31;;;;;;;5.17;3.10;;;17.50;99.90;;;;;;4917327;29;20210;-78
2021/06/03 03:24:56;;;;;;;4.67;3.53;;;17.50;99.90;;;;;;4917100;29;20520;-78
2021/06/03 03:27:22;;;;;;;4.50;3.27;;;17.50;99.90;;;;;;4932097;29;20639;-77
2021/06/03 03:29:48;;;;;;;3.80;3.50;;;17.50;99.90;;;;;;4917342;29;20193;-77
2021/06/03 03:32:14;;;;;;;8.53;4.03;;;17.50;99.90;;;;;;4917342;29;20269;-77
2021/06/03 03:34:40;;;;;;;5.67;4.03;;;17.50;99.90;;;;;;4917026;29;20995;-78
2021/06/03 03:37:06;;;;;;;6.83;4.30;;;17.50;99.90;;;;;;4917306;29;20426;-78
2021/06/03 03:39:32;;;;;;;4.90;3.30;;;17.50;99.90;;;;;;4917317;29;20190;-78
2021/06/03 03:41:57;;;;;;;4.87;4.10;;;17.50;99.90;;;;;;4917036;29;20276;-78
2021/06/03 03:44:23;;;;;;;5.27;3.17;;;17.50;99.90;;;;;;4916853;29;20206;-78
2021/06/03 03:46:48;;;;;;;4.60;3.53;;;17.50;99.90;;;;;;4917353;29;20179;-78
2021/06/03 03:49:14;;;;;;;4.93;3.80;;;17.40;99.90;;;;;;4917195;29;20265;-78
2021/06/03 03:51:40;;;;;;;3.80;3.40;;;17.40;99.90;;;;;;4931940;29;20201;-78
2021/06/03 03:54:05;;;;;;;4.37;3.90;;;17.40;99.90;;;;;;4916688;29;20198;-78
2021/06/03 03:56:31;;;;;;;4.07;3.77;;;17.40;99.90;;;;;;4917081;29;20246;-78
2021/06/03 03:58:58;;;;;;;3.87;3.53;;;17.40;99.90;;;;;;4917115;29;20186;-78
2021/06/03 04:01:27;;;;;;;6.10;3.60;;;17.40;99.90;;;;;;4922894;29;20201;-78
2021/06/03 04:03:53;;;;;;;4.43;3.50;;;17.40;99.90;;;;;;4922883;29;20466;-78
2021/06/03 04:06:19;;;;;;;3.87;3.50;;;17.40;99.90;;;;;;4923261;29;20506;-78
2021/06/03 04:08:44;;;;;;;4.07;3.70;;;17.40;99.90;;;;;;4923331;29;20174;-78
2021/06/03 04:11:10;;;;;;;4.40;4.00;;;17.40;99.90;;;;;;4923356;29;20174;-78
2021/06/03 04:13:36;;;;;;;3.13;2.80;;;17.50;99.90;;;;;;4922931;29;20204;-78
2021/06/03 04:16:02;;;;;;;5.30;3.10;;;17.50;99.90;;;;;;4923317;29;20182;-78
2021/06/03 04:18:27;;;;;;;4.07;3.40;;;17.50;99.90;;;;;;4923255;29;20240;-77
2021/06/03 04:20:53;;;;;;;4.90;4.40;;;17.60;99.90;;;;;;4923393;29;20397;-79
2021/06/03 04:23:19;;;;;;;6.90;3.67;;;17.70;99.90;;;;;;4922838;29;20713;-78
2021/06/03 04:25:44;;;;;;;3.50;3.20;;;17.80;99.90;;;;;;4923178;29;20536;-77
2021/06/03 04:28:10;;;;;;;3.80;3.43;;;17.80;99.90;;;;;;4923140;29;20684;-78
2021/06/03 04:30:40;;;;;;;4.70;3.30;;;17.90;99.90;;;;;;4922997;29;20639;-77
2021/06/03 04:33:07;;;;;;;4.30;3.30;;;17.90;99.90;;;;;;4922775;29;20181;-78
2021/06/03 04:35:33;;;;;;;4.10;3.53;;;18.00;99.90;;;;;;4923125;29;20414;-78
2021/06/03 04:37:58;;;;;;;3.93;3.43;;;18.20;99.90;;;;;;4922934;29;20432;-77
2021/06/03 04:40:24;;;;;;;4.80;3.87;;;18.30;99.90;;;;;;4922792;29;20269;-78
2021/06/03 04:42:51;;;;;;;3.93;3.10;;;18.40;99.90;;;;;;4922548;29;20217;-78
2021/06/03 04:45:18;;;;;;;4.23;3.70;;;18.50;99.90;;;;;;4923009;29;20994;-77
2021/06/03 04:47:45;;;;;;;4.13;3.77;;;18.60;99.90;;;;;;4921689;29;21000;-79
2021/06/03 04:50:13;;;;;;;7.13;3.50;;;18.70;99.90;;;;;;4923011;29;20490;-79
2021/06/03 04:52:39;;;;;;;4.50;3.33;;;18.80;99.90;;;;;;4921467;29;20524;-76
2021/06/03 04:55:16;;;;;;;3.40;3.10;;;18.90;99.90;;;;;;4922701;29;20446;-78
2021/06/03 04:57:42;;;;;;;5.23;3.57;;;19.00;99.90;;;;;;4923033;29;20399;-78
2021/06/03 05:00:12;;;;;;;4.40;3.43;;;19.10;99.90;;;;;;4937487;29;20433;-77
2021/06/03 05:02:37;;;;;;;4.30;3.50;;;19.00;99.90;;;;;;4922689;29;20824;-79
2021/06/03 05:05:05;;;;;;;4.90;3.63;;;19.20;99.90;;;;;;4937295;29;20453;-78
2021/06/03 05:07:31;;;;;;;3.33;3.03;;;19.10;99.90;;;;;;4923093;29;20185;-79
2021/06/03 05:09:56;;;;;;;5.93;3.77;;;19.20;99.90;;;;;;4922971;29;20489;-77
2021/06/03 05:12:22;;;;;;;3.53;3.23;;;19.30;99.90;;;;;;4920632;29;20190;-78
2021/06/03 05:14:48;;;;;;;3.53;3.23;;;19.40;99.90;;;;;;4919453;29;20687;-77
2021/06/03 05:17:13;;;;;;;3.40;3.10;;;19.30;99.90;;;;;;4919786;29;20182;-78
2021/06/03 05:19:39;;;;;;;4.00;3.00;;;19.30;99.90;;;;;;4919666;29;20194;-77
2021/06/03 05:22:05;;;;;;;5.27;3.40;;;19.30;99.90;;;;;;4919700;29;20209;-77
2021/06/03 05:24:31;;;;;;;3.43;3.13;;;19.30;99.90;;;;;;4919209;29;20441;-78
2021/06/03 05:26:58;;;;;;;3.90;3.50;;;19.30;99.90;;;;;;4919449;29;20426;-78
2021/06/03 05:29:25;;;;;;;4.07;3.67;;;19.30;99.90;;;;;;4919556;29;20422;-78
2021/06/03 05:31:52;;;;;;;4.90;3.03;;;19.40;99.90;;;;;;4919492;29;20433;-78
2021/06/03 05:34:18;;;;;;;6.07;3.57;;;19.40;99.90;;;;;;4918085;29;21006;-78
2021/06/03 05:36:44;;;;;;;4.07;3.53;;;19.50;99.90;;;;;;4919276;29;20510;-78
2021/06/03 05:39:10;;;;;;;3.60;3.20;;;19.60;99.90;;;;;;4919231;29;20513;-78
2021/06/03 05:41:39;;;;;;;4.37;3.97;;;19.70;99.90;;;;;;4919167;29;20210;-79
2021/06/03 05:44:06;;;;;;;4.00;3.50;;;19.90;99.90;;;;;;4917639;29;20233;-78
2021/06/03 05:46:32;;;;;;;3.93;3.10;;;20.00;99.90;;;;;;4919211;29;20419;-77
2021/06/03 05:49:00;;;;;;;3.60;3.00;;;20.10;99.90;;;;;;4933674;29;20428;-78
2021/06/03 05:51:26;;;;;;;6.70;3.83;;;20.30;99.90;;;;;;4917977;29;20206;-77
2021/06/03 05:53:51;;;;;;;4.50;3.50;;;20.40;99.90;;;;;;4918662;29;20461;-77
2021/06/03 05:56:17;;;;;;;4.80;3.20;;;20.40;99.90;;;;;;4919318;29;20190;-77
2021/06/03 05:58:43;;;;;;;4.30;3.90;;;20.40;99.90;;;;;;4919200;29;20227;-78
2021/06/03 06:01:08;;;;;;;4.83;3.70;;;20.40;99.90;;;;;;4933490;29;20186;-77
2021/06/03 06:03:39;;;;;;;4.67;3.13;;;20.40;99.90;;;;;;4933245;29;20313;-78
2021/06/03 06:06:24;;;;;;;4.20;3.80;;;20.50;99.90;;;;;;4918848;29;20171;-78
2021/06/03 06:08:54;;;;;;;4.30;3.60;;;20.40;99.90;;;;;;4918837;29;20485;-78
2021/06/03 06:11:21;;;;;;;4.70;3.73;;;20.30;99.90;;;;;;4918722;29;20426;-77
2021/06/03 06:13:47;;;;;;;6.03;3.37;;;20.20;99.90;;;;;;4918354;29;20438;-77
2021/06/03 06:16:14;;;;;;;6.70;3.83;;;20.20;99.90;;;;;;4918596;29;20422;-77
2021/06/03 06:18:41;;;;;;;6.10;3.90;;;20.00;99.90;;;;;;4917656;29;20422;-77
2021/06/03 06:21:07;;;;;;;5.80;4.70;;;20.00;99.90;;;;;;4918673;29;20558;-76
2021/06/03 06:23:38;;;;;;;4.77;4.37;;;19.90;99.90;;;;;;4917643;29;20434;-77
2021/06/03 06:26:06;;;;;;;4.67;4.27;;;19.90;99.90;;;;;;4933165;29;20924;-77
2021/06/03 06:28:32;;;;;;;5.93;5.03;;;19.90;99.90;;;;;;4918331;29;20459;-77
2021/06/03 06:30:58;;;;;;;6.00;4.30;;;19.90;99.90;;;;;;4918340;29;20889;-78
2021/06/03 06:33:25;;;;;;;4.87;4.33;;;19.90;99.90;;;;;;4917849;29;20449;-77
2021/06/03 06:35:51;;;;;;;4.50;3.87;;;19.80;99.90;;;;;;4918319;29;20433;-77
2021/06/03 06:38:19;;;;;;;6.37;4.60;;;19.80;99.90;;;;;;4916875;29;20438;-78
2021/06/03 06:40:46;;;;;;;8.17;4.63;;;19.80;99.90;;;;;;4918392;29;20458;-78
2021/06/03 06:43:12;;;;;;;6.37;5.43;;;19.80;99.90;;;;;;4916382;29;20474;-76
2021/06/03 06:45:38;;;;;;;5.93;4.07;;;19.80;99.90;;;;;;4917934;29;20450;-77
2021/06/03 06:48:06;;;;;;;6.63;4.57;;;19.80;99.90;;;;;;4918054;29;20466;-77
2021/06/03 06:50:33;;;;;;;8.00;4.97;;;19.80;99.90;;;;;;4917946;29;20450;-77
2021/06/03 06:52:58;;;;;;;5.57;4.53;;;19.90;99.90;;;;;;4932306;29;20422;-78
2021/06/03 06:55:24;;;;;;;4.80;4.13;;;19.90;99.90;;;;;;4917988;29;20422;-77
2021/06/03 06:57:54;;;;;;;8.20;4.53;;;19.90;99.90;;;;;;4917954;29;20502;-77
2021/06/03 07:00:24;;;;;;;5.40;4.40;;;19.90;99.90;;;;;;4918216;29;20181;-77
2021/06/03 07:02:50;;;;;;;5.80;4.33;;;20.00;99.90;;;;;;4932114;29;20480;-76
2021/06/03 07:05:16;;;;;;;5.57;4.53;;;20.00;99.90;;;;;;4917827;29;20458;-77
2021/06/03 07:07:42;;;;;;;5.13;4.00;;;20.00;99.90;;;;;;4917437;29;20174;-78
2021/06/03 07:10:10;;;;;;;6.60;4.50;;;20.10;99.90;;;;;;4932363;29;20505;-78
2021/06/03 07:12:37;;;;;;;6.00;4.13;;;20.20;99.90;;;;;;4917902;29;20182;-76
2021/06/03 07:15:04;;;;;;;7.47;4.47;;;20.30;99.90;;;;;;4916277;29;20453;-77
2021/06/03 07:17:30;;;;;;;5.17;4.00;;;20.30;99.90;;;;;;4917863;29;20472;-76
2021/06/03 07:19:56;;;;;;;6.90;5.07;;;20.30;99.90;;;;;;4917568;29;20509;-76
2021/06/03 07:22:21;;;;;;;11.83;4.17;;;20.40;99.90;;;;;;4917464;29;20258;-77
2021/06/03 07:24:47;;;;;;;4.27;3.60;;;20.50;99.90;;;;;;4917118;29;20197;-77
2021/06/03 07:27:13;;;;;;;4.83;3.90;;;20.60;99.90;;;;;;4931974;29;20674;-77
2021/06/03 07:29:39;;;;;;;5.60;3.50;;;20.80;99.90;;;;;;4917302;29;20183;-78
2021/06/03 07:32:06;;;;;;;5.50;4.27;;;20.90;99.90;;;;;;4917384;29;20170;-79
2021/06/03 07:34:32;;;;;;;6.43;3.70;;;21.00;99.90;;;;;;4930807;29;20474;-79
2021/06/03 07:36:57;;;;;;;4.60;3.33;;;21.00;99.90;;;;;;4931872;29;20525;-77
2021/06/03 07:39:23;;;;;;;8.20;5.00;;;21.10;99.90;;;;;;4917222;29;20297;-77
2021/06/03 07:41:50;;;;;;;8.10;4.27;;;21.10;99.90;;;;;;4917031;29;20558;-75
2021/06/03 07:44:17;;;;;;;9.20;4.50;;;20.90;99.90;;;;;;4916677;29;20660;-78
2021/06/03 07:46:43;;;;;;;5.47;4.20;;;21.00;99.90;;;;;;4917125;29;20437;-78
2021/06/03 07:49:13;;;;;;;4.83;3.77;;;21.00;99.90;;;;;;4915831;29;20482;-77
2021/06/03 07:51:39;;;;;;;7.40;4.60;;;21.00;99.90;;;;;;4916906;29;20423;-78
2021/06/03 07:54:05;;;;;;;5.00;4.33;;;21.20;99.90;;;;;;4916595;29;20438;-79
2021/06/03 07:56:31;;;;;;;4.40;3.70;;;21.10;99.90;;;;;;4916279;29;20437;-77
2021/06/03 07:58:56;;;;;;;6.80;3.70;;;21.20;99.90;;;;;;4916539;29;20178;-78
2021/06/03 08:01:22;;;;;;;4.80;4.37;;;21.10;99.90;;;;;;4916890;29;20671;-76
2021/06/03 08:03:48;;;;;;;4.00;3.70;;;21.00;99.90;;;;;;4916567;29;20222;-80
2021/06/03 08:06:14;;;;;;;4.13;3.73;;;21.10;99.90;;;;;;4916890;29;20619;-77
2021/06/03 08:08:39;;;;;;;7.57;4.43;;;21.30;99.90;;;;;;4917135;29;20446;-78
2021/06/03 08:11:06;;;;;;;5.10;4.23;;;21.30;99.90;;;;;;4916965;29;20182;-78
2021/06/03 08:13:33;;;;;;;4.67;4.30;;;21.30;99.90;;;;;;4916540;29;20253;-77
2021/06/03 08:15:59;;;;;;;5.60;4.57;;;21.20;99.90;;;;;;4915627;29;20466;-77
2021/06/03 08:18:25;;;;;;;4.83;4.40;;;21.00;99.90;;;;;;4916765;29;20457;-76
2021/06/03 08:20:55;;;;;;;5.10;4.60;;;20.90;99.90;;;;;;4916946;29;20983;-79
2021/06/03 08:23:21;;;;;;;6.50;3.77;;;20.90;99.90;;;;;;4916409;29;20220;-78
2021/06/03 08:25:47;;;;;;;6.30;4.77;;;20.80;99.90;;;;;;4916799;29;20413;-77
2021/06/03 08:28:13;;;;;;;5.67;5.07;;;20.70;99.90;;;;;;4916836;29;20418;-77
2021/06/03 08:30:40;;;;;;;6.60;5.70;;;20.70;99.90;;;;;;4916698;29;20505;-78
2021/06/03 08:33:07;;;;;;;5.43;5.00;;;20.50;99.90;;;;;;4916543;29;20500;-79
2021/06/03 08:35:34;;;;;;;5.40;5.00;;;20.30;99.90;;;;;;4916859;29;20425;-78
2021/06/03 08:38:04;;;;;;;9.97;6.43;;;20.20;99.90;;;;;;4916841;29;20862;-79
2021/06/03 08:40:50;;;;;;;11.40;6.40;;;20.00;99.90;;;;;;4931613;29;20999;-81
2021/06/03 08:43:16;;;;;;;13.00;6.47;;;19.70;99.90;;;;;;4916398;29;20445;-79
2021/06/03 08:45:44;;;;;;;12.43;6.80;;;19.50;99.90;;;;;;4917032;29;20422;-78
2021/06/03 08:48:12;;;;;;;9.80;8.20;;;19.50;99.90;;;;;;4920206;29;20974;-75
2021/06/03 08:50:41;;;;;;;8.77;8.00;;;19.60;99.90;;;;;;4918960;29;20457;-78
2021/06/03 08:53:07;;;;;;;8.00;7.20;;;19.60;99.90;;;;;;4919816;29;20410;-75
2021/06/03 08:58:21;;;;;;;8.30;6.43;;;19.80;99.90;;;;;;4911583;29;20413;-76
2021/06/03 09:00:48;;;;;;;8.57;6.67;;;19.90;99.90;;;;;;4920105;29;20479;-76
2021/06/03 09:03:14;;;;;;;7.87;7.17;;;20.00;99.90;;;;;;4919647;29;20461;-76
2021/06/03 09:05:41;;;;;;;7.97;7.10;;;20.10;99.90;;;;;;4934657;29;20482;-76
2021/06/03 09:08:18;;;;;;;9.40;6.90;;;20.20;99.90;;;;;;4920163;29;20414;-76
2021/06/03 09:10:45;;;;;;;7.20;6.57;;;20.30;99.90;;;;;;4920428;29;20421;-75
2021/06/03 09:13:19;;;;;;;10.17;7.00;;;20.40;99.90;;;;;;4919376;29;20513;-77
2021/06/03 09:15:56;;;;;;;13.30;6.37;;;20.50;99.90;;;;;;4919972;29;20835;-78
2021/06/03 09:18:45;;;;;;;6.13;5.53;;;20.50;99.90;;;;;;4919713;29;20424;-79
2021/06/03 09:21:16;;;;;;;8.07;5.30;;;20.60;99.90;;;;;;4919974;29;20537;-80
2021/06/03 09:24:04;;;;;;;8.57;6.20;;;20.50;99.90;;;;;;4919455;29;20966;-75
2021/06/03 09:26:35;;;;;;;11.33;6.27;;;20.40;99.90;;;;;;4919413;29;20414;-76
2021/06/03 09:29:04;;;;;;;10.00;6.67;;;20.40;99.90;;;;;;4918490;29;20932;-79
2021/06/03 09:31:32;;;;;;;8.60;6.40;;;20.50;99.90;;;;;;4919597;29;20402;-78
2021/06/03 09:34:08;;;;;;;6.63;6.03;;;20.50;99.90;;;;;;4919218;29;20430;-77
2021/06/03 09:36:54;;;;;;;9.27;6.87;;;20.50;99.90;;;;;;4919462;29;20417;-77
2021/06/03 09:39:29;;;;;;;8.77;6.20;;;20.30;99.90;;;;;;4919388;29;20421;-79
2021/06/03 09:42:14;;;;;;;7.80;7.00;;;20.40;99.90;;;;;;4919333;29;20512;-76
2021/06/03 09:44:55;;;;;;;9.50;8.50;;;20.50;99.90;;;;;;4917608;29;20453;-78
2021/06/03 09:47:42;;;;;;;8.47;7.67;;;20.70;99.90;;;;;;4919205;29;20908;-78
2021/06/03 09:50:10;;;;;;;9.63;7.10;;;20.90;99.90;;;;;;4918725;29;20430;-75
2021/06/03 09:52:37;;;;;;;11.30;7.10;;;20.90;99.90;;;;;;4917839;29;20440;-77
2021/06/03 09:55:11;;;;;;;8.00;7.20;;;20.90;99.90;;;;;;4918592;29;20449;-76
2021/06/03 09:57:39;;;;;;;9.57;7.37;;;21.30;99.90;;;;;;4918271;29;20417;-76
2021/06/03 10:00:14;;;;;;;7.33;6.60;;;21.50;99.90;;;;;;4918936;29;20482;-74
2021/06/03 10:02:40;;;;;;;8.43;6.60;;;21.70;99.90;;;;;;4917499;29;20457;-75
2021/06/03 10:05:20;;;;;;;8.77;6.50;;;21.90;99.90;;;;;;4918296;29;20477;-74
2021/06/03 10:08:04;;;;;;;10.43;6.93;;;21.90;99.90;;;;;;4918814;29;20445;-76
2021/06/03 10:10:32;;;;;;;10.50;7.57;;;22.10;99.90;;;;;;4919001;29;20406;-75
2021/06/03 10:13:05;;;;;;;8.10;6.20;;;22.20;99.90;;;;;;4918530;29;20453;-76
2021/06/03 10:15:35;;;;;;;8.27;6.37;;;22.30;99.90;;;;;;4918836;29;20433;-76
2021/06/03 10:18:23;;;;;;;9.40;6.27;;;22.40;99.90;;;;;;4918779;29;20999;-75
2021/06/03 10:20:53;;;;;;;7.70;6.23;;;22.40;99.90;;;;;;4918383;29;20448;-74
2021/06/03 10:23:29;;;;;;;7.13;5.70;;;22.60;99.90;;;;;;4918112;29;20502;-74
2021/06/03 10:25:59;;;;;;;6.00;5.20;;;22.80;99.90;;;;;;4918541;29;20428;-75
2021/06/03 10:28:25;;;;;;;9.57;5.83;;;23.10;99.90;;;;;;4918556;29;20413;-75
2021/06/03 10:30:57;;;;;;;5.90;5.40;;;23.30;99.90;;;;;;4918941;29;20976;-75
2021/06/03 10:33:31;;;;;;;6.53;5.33;;;23.50;99.90;;;;;;4918488;29;20438;-76
2021/06/03 10:36:05;;;;;;;5.00;4.60;;;23.90;99.90;;;;;;4918722;29;20417;-74
2021/06/03 10:38:32;;;;;;;7.40;4.97;;;24.00;99.90;;;;;;4913478;29;20433;-75
2021/06/03 10:41:02;;;;;;;5.97;5.40;;;24.10;99.90;;;;;;4916984;29;20430;-77
2021/06/03 10:43:28;;;;;;;7.33;5.63;;;24.30;99.90;;;;;;4916646;29;20474;-76
2021/06/03 10:45:54;;;;;;;6.80;5.03;;;24.30;99.90;;;;;;4917049;29;20542;-76
2021/06/03 10:48:20;;;;;;;8.07;5.10;;;24.50;99.90;;;;;;4916538;29;20426;-77
2021/06/03 10:50:53;;;;;;;6.03;5.37;;;24.50;99.90;;;;;;4916893;29;20935;-77
2021/06/03 10:53:25;;;;;;;9.57;6.67;;;24.10;99.90;;;;;;4915773;29;20258;-77
2021/06/03 10:55:53;;;;;;;6.63;6.03;;;24.10;99.90;;;;;;4916871;29;20426;-76
2021/06/03 10:58:33;;;;;;;5.93;5.33;;;24.20;99.90;;;;;;4916013;29;20509;-76
2021/06/03 11:01:09;;;;;;;5.97;5.37;;;24.40;99.90;;;;;;4915418;29;20432;-76
2021/06/03 11:03:59;;;;;;;7.07;6.03;;;24.50;99.90;;;;;;4915676;29;20527;-76
2021/06/03 11:06:27;;;;;;;9.20;6.17;;;24.30;99.90;;;;;;4918091;29;20460;-77
2021/06/03 11:08:55;;;;;;;6.67;6.07;;;24.20;99.90;;;;;;4917046;29;20425;-77
2021/06/03 11:11:27;;;;;;;6.30;5.20;;;24.20;99.90;;;;;;4914845;29;20577;-77
2021/06/03 11:13:53;;;;;;;6.93;6.23;;;24.10;99.90;;;;;;4915013;29;20526;-76
2021/06/03 11:16:34;;;;;;;6.47;5.60;;;24.00;99.90;;;;;;4915406;29;20497;-76
2021/06/03 11:19:00;;;;;;;7.47;5.90;;;24.00;99.90;;;;;;4915844;29;20175;-76
2021/06/03 11:21:42;;;;;;;7.17;5.90;;;24.10;99.90;;;;;;4914829;29;20422;-77
2021/06/03 11:24:35;;;;;;;7.20;6.20;;;24.10;99.90;;;;;;4914020;29;20190;-77
2021/06/03 11:27:03;;;;;;;8.33;5.17;;;24.10;99.90;;;;;;4908387;29;20506;-77
2021/06/03 11:29:38;;;;;;;6.27;5.67;;;24.20;99.90;;;;;;4914844;29;20478;-76
2021/06/03 11:32:04;;;;;;;6.80;5.70;;;24.30;99.90;;;;;;4914975;29;20528;-76
2021/06/03 11:34:39;;;;;;;6.57;5.50;;;24.50;99.90;;;;;;4915495;29;20512;-77
2021/06/03 11:37:20;;;;;;;6.33;5.67;;;24.80;99.90;;;;;;4915350;29;20194;-76
2021/06/03 11:39:46;;;;;;;5.43;4.90;;;24.90;99.90;;;;;;4914598;29;20437;-77
2021/06/03 11:42:28;;;;;;;6.50;5.17;;;24.90;99.90;;;;;;4915790;29;20553;-78
2021/06/03 11:45:10;;;;;;;5.77;5.27;;;25.20;99.90;;;;;;4915815;29;20521;-77
2021/06/03 11:47:36;;;;;;;7.77;4.77;;;25.30;99.90;;;;;;4915765;29;20961;-76
2021/06/03 11:50:04;;;;;;;5.83;4.93;;;25.40;99.90;;;;;;4915993;29;20509;-78
2021/06/03 11:52:30;;;;;;;6.67;5.17;;;25.70;99.90;;;;;;4929653;29;20210;-78
2021/06/03 11:55:06;;;;;;;5.30;4.80;;;25.80;99.90;;;;;;4915742;29;20974;-77
2021/06/03 11:57:38;;;;;;;5.00;4.40;;;25.90;99.90;;;;;;4916002;29;20915;-77
2021/06/03 12:00:12;;;;;;;6.23;4.10;;;26.10;99.90;;;;;;4915729;29;20465;-77
2021/06/03 12:02:44;;;;;;;7.40;5.30;;;26.70;99.90;;;;;;4915563;29;20469;-78
2021/06/03 12:05:10;;;;;;;8.60;5.70;;;27.00;99.90;;;;;;4915953;29;20806;-78
2021/06/03 12:07:42;;;;;;;7.37;6.07;;;26.70;99.90;;;;;;4915325;29;20433;-79
2021/06/03 12:10:09;;;;;;;11.50;7.70;;;26.70;99.90;;;;;;4915914;29;20433;-77
2021/06/03 12:12:35;;;;;;;9.50;7.40;;;26.70;99.90;;;;;;4915311;29;20425;-78
2021/06/03 12:15:01;;;;;;;11.73;6.83;;;27.10;99.90;;;;;;4928551;29;20442;-78
2021/06/03 12:17:27;;;;;;;16.93;7.50;;;27.20;99.90;;;;;;4913145;29;20845;-77
2021/06/03 12:19:53;;;;;;;8.13;5.57;;;27.50;99.90;;;;;;4914971;29;20441;-76
2021/06/03 12:22:21;;;;;;;6.13;4.90;;;27.80;99.90;;;;;;4916908;29;20583;-77
2021/06/03 12:24:56;;;;;;;6.17;5.03;;;27.70;99.90;;;;;;4918048;29;20450;-76
2021/06/03 12:27:32;;;;;;;7.13;6.50;;;27.60;99.90;;;;;;4918994;29;20433;-76
2021/06/03 12:30:21;;;;;;;6.80;4.93;;;27.70;99.90;;;;;;4933420;29;20846;-76
2021/06/03 12:33:16;;;;;;;6.03;4.50;;;27.80;99.90;;;;;;4919160;29;20787;-75
2021/06/03 12:35:58;;;;;;;8.03;4.50;;;27.60;99.90;;;;;;4918482;29;20422;-76
2021/06/03 12:38:32;;;;;;;5.40;4.30;;;27.80;99.90;;;;;;4918778;29;20426;-76
2021/06/03 12:41:06;;;;;;;7.50;4.60;;;27.80;99.90;;;;;;4915244;29;20426;-77
2021/06/03 12:43:43;;;;;;;6.87;4.60;;;27.60;99.90;;;;;;4917808;29;20462;-76
2021/06/03 12:46:10;;;;;;;3.73;3.40;;;27.70;99.90;;;;;;4933851;29;21013;-77
2021/06/03 12:48:36;;;;;;;4.07;3.60;;;27.50;99.90;;;;;;4918705;29;20481;-77
2021/06/03 12:51:07;;;;;;;4.93;4.03;;;27.50;99.90;;;;;;4918248;29;20418;-76
2021/06/03 12:53:33;;;;;;;5.10;4.70;;;27.60;99.90;;;;;;4918286;29;20206;-77
2021/06/03 12:56:09;;;;;;;6.63;3.83;;;27.50;99.90;;;;;;4918587;29;20478;-76
2021/06/03 12:58:34;;;;;;;3.63;3.20;;;27.50;99.90;;;;;;4918087;29;20177;-77